UTA025 UHSS-UHWW
Flight info
| Callsign | UTA025 |
|---|---|
| Flight time | 1h 30m |
| Altitude | 38000 |
| Route | KENOM3V KENOM B919 UTAGI W906 TUNET/K0822F340 W293 BEMOR/K0644F160 W293 DAGES DAGES2N |
| Aircraft | B738/M-SDE2E3FGHIRWXY/LB1 |
Departure
| Time | 2026-05-01 08:06 |
|---|---|
| Airport | Yuzhno-Sakhalinsk International Airport (UHSS) |
Arrival
| Time | 2026-05-01 09:36 |
|---|---|
| Airport | Vladivostok International Airport (UHWW) |
| Time | Latitude | Longitude | Altitude | Speed | Heading |
|---|---|---|---|---|---|
| 2026-05-01 07:23 | 46.88783 | 142.72235 | 67 ft | 0 kts | 90° |
| 2026-05-01 07:49 | 46.88783 | 142.72231 | 67 ft | 2 kts | 90° |
| 2026-05-01 07:50 | 46.88783 | 142.72209 | 67 ft | 2 kts | 90° |
| 2026-05-01 07:50 | 46.88783 | 142.72172 | 67 ft | 1 kts | 90° |
| 2026-05-01 07:50 | 46.88781 | 142.72151 | 67 ft | 2 kts | 72° |
| 2026-05-01 07:51 | 46.88776 | 142.72131 | 67 ft | 2 kts | 58° |
| 2026-05-01 07:51 | 46.88766 | 142.72115 | 67 ft | 2 kts | 42° |
| 2026-05-01 07:51 | 46.88754 | 142.72101 | 67 ft | 2 kts | 27° |
| 2026-05-01 07:52 | 46.88731 | 142.72092 | 67 ft | 1 kts | 1° |
| 2026-05-01 07:52 | 46.88725 | 142.72092 | 67 ft | 0 kts | 359° |
| 2026-05-01 07:54 | 46.88786 | 142.72098 | 67 ft | 13 kts | 5° |
| 2026-05-01 07:55 | 46.89027 | 142.72040 | 67 ft | 10 kts | 327° |
| 2026-05-01 07:55 | 46.89086 | 142.71884 | 67 ft | 7 kts | 266° |
| 2026-05-01 07:56 | 46.89301 | 142.71753 | 67 ft | 19 kts | 360° |
| 2026-05-01 07:56 | 46.89555 | 142.71767 | 67 ft | 17 kts | 2° |
| 2026-05-01 07:57 | 46.89676 | 142.71774 | 67 ft | 17 kts | 2° |
| 2026-05-01 07:57 | 46.89908 | 142.71780 | 67 ft | 15 kts | 1° |
| 2026-05-01 07:58 | 46.90115 | 142.71783 | 67 ft | 6 kts | 0° |
| 2026-05-01 07:58 | 46.90093 | 142.71774 | 67 ft | 12 kts | 175° |
| 2026-05-01 07:59 | 46.90025 | 142.71777 | 67 ft | 0 kts | 182° |
| 2026-05-01 08:05 | 46.89909 | 142.71771 | 67 ft | 40 kts | 184° |
| 2026-05-01 08:05 | 46.89403 | 142.71748 | 67 ft | 102 kts | 182° |
| 2026-05-01 08:05 | 46.88514 | 142.71735 | 75 ft | 151 kts | 184° |
| 2026-05-01 08:06 | 46.86320 | 142.71669 | 1117 ft | 163 kts | 189° |
| 2026-05-01 08:06 | 46.84900 | 142.69687 | 2482 ft | 147 kts | 236° |
| 2026-05-01 08:07 | 46.83321 | 142.67918 | 3541 ft | 146 kts | 216° |
| 2026-05-01 08:07 | 46.81574 | 142.66136 | 4272 ft | 168 kts | 216° |
| 2026-05-01 08:08 | 46.80568 | 142.65129 | 4600 ft | 183 kts | 216° |
| 2026-05-01 08:08 | 46.78277 | 142.62834 | 5296 ft | 215 kts | 216° |
| 2026-05-01 08:09 | 46.75642 | 142.60187 | 6063 ft | 246 kts | 216° |
| 2026-05-01 08:09 | 46.74186 | 142.58727 | 6502 ft | 259 kts | 216° |
| 2026-05-01 08:09 | 46.72696 | 142.57230 | 7067 ft | 265 kts | 216° |
| 2026-05-01 08:10 | 46.69641 | 142.54166 | 8528 ft | 270 kts | 216° |
| 2026-05-01 08:10 | 46.66514 | 142.51022 | 9924 ft | 278 kts | 217° |
| 2026-05-01 08:11 | 46.63864 | 142.46684 | 10688 ft | 307 kts | 246° |
| 2026-05-01 08:11 | 46.63240 | 142.40418 | 11904 ft | 325 kts | 275° |
| 2026-05-01 08:12 | 46.64921 | 142.34242 | 13290 ft | 338 kts | 295° |
| 2026-05-01 08:12 | 46.66059 | 142.31241 | 13653 ft | 342 kts | 295° |
| 2026-05-01 08:12 | 46.68327 | 142.25185 | 13691 ft | 340 kts | 295° |
| 2026-05-01 08:13 | 46.69426 | 142.22162 | 13697 ft | 338 kts | 294° |
| 2026-05-01 08:13 | 46.70521 | 142.19107 | 13700 ft | 339 kts | 294° |
| 2026-05-01 08:13 | 46.72673 | 142.13042 | 13700 ft | 338 kts | 293° |
| 2026-05-01 08:14 | 46.73745 | 142.10011 | 13697 ft | 336 kts | 294° |
| 2026-05-01 08:14 | 46.74816 | 142.06981 | 13700 ft | 336 kts | 294° |
| 2026-05-01 08:14 | 46.75895 | 142.03925 | 13701 ft | 338 kts | 294° |
| 2026-05-01 08:14 | 46.76963 | 142.00903 | 13704 ft | 336 kts | 294° |
| 2026-05-01 08:15 | 46.78040 | 141.97852 | 13703 ft | 336 kts | 294° |
| 2026-05-01 08:15 | 46.80158 | 141.91834 | 13695 ft | 336 kts | 294° |
| 2026-05-01 08:15 | 46.81219 | 141.88812 | 13693 ft | 335 kts | 294° |
| 2026-05-01 08:16 | 46.82292 | 141.85750 | 13690 ft | 336 kts | 293° |
| 2026-05-01 08:16 | 46.83236 | 141.82692 | 13695 ft | 333 kts | 287° |
| 2026-05-01 08:16 | 46.83833 | 141.79422 | 13695 ft | 331 kts | 275° |
| 2026-05-01 08:16 | 46.83939 | 141.76035 | 14119 ft | 340 kts | 266° |
| 2026-05-01 08:17 | 46.83803 | 141.72682 | 15163 ft | 333 kts | 263° |
| 2026-05-01 08:17 | 46.83615 | 141.69350 | 15992 ft | 333 kts | 262° |
| 2026-05-01 08:17 | 46.83415 | 141.65967 | 16571 ft | 340 kts | 262° |
| 2026-05-01 08:17 | 46.83215 | 141.62534 | 17225 ft | 344 kts | 262° |
| 2026-05-01 08:18 | 46.83015 | 141.59056 | 17916 ft | 346 kts | 262° |
| 2026-05-01 08:18 | 46.82615 | 141.52010 | 19237 ft | 351 kts | 262° |
| 2026-05-01 08:19 | 46.82210 | 141.44926 | 20557 ft | 353 kts | 262° |
| 2026-05-01 08:19 | 46.82003 | 141.41353 | 21173 ft | 355 kts | 262° |
| 2026-05-01 08:19 | 46.81794 | 141.37775 | 21790 ft | 356 kts | 263° |
| 2026-05-01 08:19 | 46.81583 | 141.34177 | 22350 ft | 358 kts | 262° |
| 2026-05-01 08:20 | 46.81372 | 141.30562 | 22900 ft | 361 kts | 262° |
| 2026-05-01 08:20 | 46.81157 | 141.26932 | 23406 ft | 363 kts | 262° |
| 2026-05-01 08:20 | 46.80940 | 141.23273 | 23950 ft | 365 kts | 262° |
| 2026-05-01 08:20 | 46.80722 | 141.19618 | 24573 ft | 364 kts | 262° |
| 2026-05-01 08:21 | 46.80499 | 141.15915 | 25097 ft | 364 kts | 262° |
| 2026-05-01 08:21 | 46.80278 | 141.12274 | 25634 ft | 364 kts | 262° |
| 2026-05-01 08:21 | 46.80056 | 141.08601 | 26180 ft | 364 kts | 261° |
| 2026-05-01 08:21 | 46.79833 | 141.04958 | 26691 ft | 365 kts | 261° |
| 2026-05-01 08:22 | 46.79609 | 141.01282 | 27180 ft | 366 kts | 261° |
| 2026-05-01 08:22 | 46.79383 | 140.97600 | 27631 ft | 367 kts | 261° |
| 2026-05-01 08:22 | 46.79151 | 140.93870 | 28099 ft | 367 kts | 260° |
| 2026-05-01 08:22 | 46.78923 | 140.90214 | 28506 ft | 369 kts | 261° |
| 2026-05-01 08:23 | 46.78686 | 140.86450 | 28926 ft | 370 kts | 261° |
| 2026-05-01 08:23 | 46.78453 | 140.82752 | 29399 ft | 370 kts | 260° |
| 2026-05-01 08:23 | 46.78219 | 140.79056 | 29873 ft | 369 kts | 260° |
| 2026-05-01 08:23 | 46.77980 | 140.75323 | 30187 ft | 372 kts | 260° |
| 2026-05-01 08:24 | 46.77736 | 140.71526 | 30614 ft | 373 kts | 259° |
| 2026-05-01 08:24 | 46.77492 | 140.67749 | 30916 ft | 376 kts | 259° |
| 2026-05-01 08:24 | 46.77243 | 140.63910 | 31283 ft | 378 kts | 259° |
| 2026-05-01 08:24 | 46.77000 | 140.60130 | 31762 ft | 377 kts | 259° |
| 2026-05-01 08:25 | 46.76751 | 140.56305 | 32174 ft | 377 kts | 258° |
| 2026-05-01 08:25 | 46.76499 | 140.52487 | 32646 ft | 376 kts | 258° |
| 2026-05-01 08:25 | 46.76249 | 140.48673 | 33191 ft | 373 kts | 257° |
| 2026-05-01 08:25 | 46.76003 | 140.44949 | 33704 ft | 370 kts | 258° |
| 2026-05-01 08:26 | 46.75755 | 140.41219 | 34107 ft | 369 kts | 257° |
| 2026-05-01 08:26 | 46.75509 | 140.37503 | 34537 ft | 366 kts | 258° |
| 2026-05-01 08:26 | 46.75261 | 140.33798 | 34894 ft | 365 kts | 256° |
| 2026-05-01 08:26 | 46.75011 | 140.30095 | 35228 ft | 364 kts | 256° |
| 2026-05-01 08:27 | 46.74765 | 140.26474 | 35547 ft | 363 kts | 257° |
| 2026-05-01 08:27 | 46.74513 | 140.22781 | 35838 ft | 362 kts | 257° |
| 2026-05-01 08:27 | 46.74265 | 140.19170 | 36077 ft | 363 kts | 257° |
| 2026-05-01 08:27 | 46.74006 | 140.15463 | 36203 ft | 367 kts | 257° |
| 2026-05-01 08:28 | 46.73743 | 140.11768 | 36413 ft | 369 kts | 257° |
| 2026-05-01 08:28 | 46.73464 | 140.08014 | 36678 ft | 371 kts | 257° |
| 2026-05-01 08:28 | 46.73143 | 140.04321 | 37111 ft | 367 kts | 255° |
| 2026-05-01 08:28 | 46.72626 | 140.00752 | 37447 ft | 361 kts | 250° |
| 2026-05-01 08:29 | 46.71827 | 139.97304 | 37660 ft | 358 kts | 245° |
| 2026-05-01 08:29 | 46.69723 | 139.90720 | 37656 ft | 361 kts | 240° |
| 2026-05-01 08:30 | 46.67479 | 139.84247 | 37654 ft | 359 kts | 240° |
| 2026-05-01 08:30 | 46.65250 | 139.77792 | 37649 ft | 359 kts | 240° |
| 2026-05-01 08:31 | 46.63036 | 139.71309 | 37649 ft | 359 kts | 241° |
| 2026-05-01 08:31 | 46.60796 | 139.64819 | 37645 ft | 360 kts | 240° |
| 2026-05-01 08:32 | 46.58550 | 139.58325 | 37646 ft | 360 kts | 240° |
| 2026-05-01 08:32 | 46.56306 | 139.51837 | 37641 ft | 361 kts | 240° |
| 2026-05-01 08:33 | 46.54044 | 139.45323 | 37646 ft | 359 kts | 241° |
| 2026-05-01 08:33 | 46.51795 | 139.38860 | 37643 ft | 361 kts | 240° |
| 2026-05-01 08:34 | 46.49513 | 139.32312 | 37637 ft | 363 kts | 239° |
| 2026-05-01 08:34 | 46.47243 | 139.25829 | 37632 ft | 362 kts | 240° |
| 2026-05-01 08:35 | 46.44953 | 139.19292 | 37637 ft | 365 kts | 240° |
| 2026-05-01 08:35 | 46.42652 | 139.12767 | 37642 ft | 363 kts | 239° |
| 2026-05-01 08:36 | 46.39951 | 139.06659 | 37640 ft | 362 kts | 232° |
| 2026-05-01 08:36 | 46.36881 | 139.00850 | 37644 ft | 366 kts | 231° |
| 2026-05-01 08:37 | 46.33784 | 138.95050 | 37639 ft | 363 kts | 231° |
| 2026-05-01 08:37 | 46.30732 | 138.89298 | 37641 ft | 364 kts | 231° |
| 2026-05-01 08:38 | 46.27657 | 138.83490 | 37637 ft | 364 kts | 231° |
| 2026-05-01 08:38 | 46.24578 | 138.77684 | 37634 ft | 364 kts | 231° |
| 2026-05-01 08:39 | 46.21507 | 138.71892 | 37628 ft | 365 kts | 231° |
| 2026-05-01 08:39 | 46.18441 | 138.66130 | 37629 ft | 364 kts | 231° |
| 2026-05-01 08:40 | 46.13807 | 138.57448 | 37618 ft | 365 kts | 231° |
| 2026-05-01 08:40 | 46.10704 | 138.51646 | 37619 ft | 367 kts | 231° |
| 2026-05-01 08:41 | 46.07608 | 138.45863 | 37616 ft | 367 kts | 231° |
| 2026-05-01 08:41 | 46.04482 | 138.40044 | 37620 ft | 367 kts | 231° |
| 2026-05-01 08:42 | 46.01351 | 138.34232 | 37614 ft | 369 kts | 230° |
| 2026-05-01 08:42 | 45.98197 | 138.28380 | 37611 ft | 368 kts | 231° |
| 2026-05-01 08:43 | 45.95063 | 138.22572 | 37608 ft | 369 kts | 230° |
| 2026-05-01 08:43 | 45.91900 | 138.16736 | 37603 ft | 371 kts | 230° |
| 2026-05-01 08:44 | 45.88732 | 138.10899 | 37606 ft | 370 kts | 230° |
| 2026-05-01 08:44 | 45.85506 | 138.05167 | 37602 ft | 370 kts | 228° |
| 2026-05-01 08:45 | 45.82236 | 137.99507 | 37608 ft | 370 kts | 229° |
| 2026-05-01 08:45 | 45.78942 | 137.93800 | 37616 ft | 370 kts | 229° |
| 2026-05-01 08:46 | 45.75674 | 137.88138 | 37614 ft | 370 kts | 228° |
| 2026-05-01 08:46 | 45.72402 | 137.82469 | 37617 ft | 369 kts | 229° |
| 2026-05-01 08:47 | 45.69139 | 137.76816 | 37605 ft | 370 kts | 229° |
| 2026-05-01 08:47 | 45.65840 | 137.71118 | 37609 ft | 373 kts | 229° |
| 2026-05-01 08:48 | 45.62545 | 137.65439 | 37603 ft | 371 kts | 229° |
| 2026-05-01 08:48 | 45.59251 | 137.59773 | 37606 ft | 372 kts | 229° |
| 2026-05-01 08:49 | 45.55953 | 137.54106 | 37600 ft | 372 kts | 229° |
| 2026-05-01 08:49 | 45.52637 | 137.48424 | 37599 ft | 375 kts | 229° |
| 2026-05-01 08:50 | 45.49325 | 137.42764 | 37601 ft | 374 kts | 229° |
| 2026-05-01 08:50 | 45.45982 | 137.37071 | 37603 ft | 376 kts | 228° |
| 2026-05-01 08:51 | 45.42617 | 137.31349 | 37601 ft | 375 kts | 228° |
| 2026-05-01 08:51 | 45.39273 | 137.25668 | 37606 ft | 377 kts | 227° |
| 2026-05-01 08:52 | 45.35902 | 137.19951 | 37605 ft | 377 kts | 228° |
| 2026-05-01 08:52 | 45.32544 | 137.14259 | 37610 ft | 377 kts | 228° |
| 2026-05-01 08:53 | 45.29167 | 137.08553 | 37611 ft | 379 kts | 228° |
| 2026-05-01 08:53 | 45.25762 | 137.02809 | 37610 ft | 380 kts | 228° |
| 2026-05-01 08:54 | 45.22351 | 136.97070 | 37610 ft | 381 kts | 228° |
| 2026-05-01 08:54 | 45.18944 | 136.91344 | 37613 ft | 380 kts | 228° |
| 2026-05-01 08:55 | 45.15532 | 136.85626 | 37610 ft | 381 kts | 228° |
| 2026-05-01 08:55 | 45.12099 | 136.79887 | 37607 ft | 381 kts | 228° |
| 2026-05-01 08:56 | 45.08637 | 136.74120 | 37605 ft | 382 kts | 228° |
| 2026-05-01 08:56 | 45.05220 | 136.68428 | 37607 ft | 381 kts | 228° |
| 2026-05-01 08:57 | 45.01783 | 136.62714 | 37609 ft | 382 kts | 227° |
| 2026-05-01 08:57 | 44.98340 | 136.57005 | 37616 ft | 383 kts | 228° |
| 2026-05-01 08:58 | 44.94896 | 136.51311 | 37617 ft | 383 kts | 228° |
| 2026-05-01 08:58 | 44.91434 | 136.45595 | 37615 ft | 383 kts | 228° |
| 2026-05-01 08:59 | 44.87949 | 136.39851 | 37606 ft | 387 kts | 227° |
| 2026-05-01 08:59 | 44.84458 | 136.34106 | 37603 ft | 384 kts | 227° |
| 2026-05-01 09:00 | 44.81111 | 136.28181 | 37597 ft | 388 kts | 232° |
| 2026-05-01 09:00 | 44.78236 | 136.21719 | 37605 ft | 388 kts | 236° |
| 2026-05-01 09:01 | 44.75519 | 136.15179 | 37615 ft | 390 kts | 236° |
| 2026-05-01 09:01 | 44.72790 | 136.08646 | 37631 ft | 387 kts | 236° |
| 2026-05-01 09:02 | 44.70044 | 136.02136 | 37635 ft | 389 kts | 236° |
| 2026-05-01 09:02 | 44.67274 | 135.95612 | 37636 ft | 389 kts | 236° |
| 2026-05-01 09:03 | 44.64514 | 135.89133 | 37632 ft | 389 kts | 236° |
| 2026-05-01 09:03 | 44.61725 | 135.82602 | 37631 ft | 389 kts | 236° |
| 2026-05-01 09:04 | 44.58938 | 135.76094 | 37627 ft | 390 kts | 236° |
| 2026-05-01 09:04 | 44.56157 | 135.69609 | 37632 ft | 390 kts | 236° |
| 2026-05-01 09:05 | 44.53363 | 135.63106 | 37631 ft | 389 kts | 236° |
| 2026-05-01 09:05 | 44.50548 | 135.56580 | 37625 ft | 391 kts | 236° |
| 2026-05-01 09:06 | 44.47750 | 135.50105 | 37627 ft | 391 kts | 236° |
| 2026-05-01 09:06 | 44.44927 | 135.43591 | 37631 ft | 391 kts | 236° |
| 2026-05-01 09:07 | 44.42095 | 135.37062 | 37634 ft | 392 kts | 237° |
| 2026-05-01 09:07 | 44.39241 | 135.30504 | 37641 ft | 397 kts | 236° |
| 2026-05-01 09:08 | 44.36373 | 135.23927 | 37621 ft | 395 kts | 236° |
| 2026-05-01 09:08 | 44.33513 | 135.17383 | 37603 ft | 398 kts | 236° |
| 2026-05-01 09:09 | 44.30657 | 135.10861 | 37620 ft | 395 kts | 236° |
| 2026-05-01 09:09 | 44.27774 | 135.04291 | 37612 ft | 394 kts | 236° |
| 2026-05-01 09:10 | 44.24975 | 134.97681 | 37601 ft | 397 kts | 238° |
| 2026-05-01 09:10 | 44.22295 | 134.90988 | 37614 ft | 398 kts | 239° |
| 2026-05-01 09:11 | 44.19592 | 134.84236 | 37618 ft | 399 kts | 238° |
| 2026-05-01 09:11 | 44.16884 | 134.77521 | 37625 ft | 397 kts | 238° |
| 2026-05-01 09:12 | 44.14177 | 134.70848 | 37571 ft | 394 kts | 238° |
| 2026-05-01 09:12 | 44.12845 | 134.67574 | 37299 ft | 387 kts | 238° |
| 2026-05-01 09:12 | 44.11511 | 134.64302 | 36879 ft | 386 kts | 237° |
| 2026-05-01 09:13 | 44.10181 | 134.61046 | 36338 ft | 387 kts | 237° |
| 2026-05-01 09:13 | 44.08857 | 134.57811 | 35829 ft | 387 kts | 236° |
| 2026-05-01 09:13 | 44.07522 | 134.54559 | 35240 ft | 391 kts | 235° |
| 2026-05-01 09:13 | 44.06178 | 134.51291 | 34568 ft | 395 kts | 234° |
| 2026-05-01 09:14 | 44.04816 | 134.47986 | 33759 ft | 398 kts | 234° |
| 2026-05-01 09:14 | 44.03444 | 134.44649 | 33263 ft | 392 kts | 235° |
| 2026-05-01 09:14 | 44.02109 | 134.41397 | 32790 ft | 386 kts | 235° |
| 2026-05-01 09:14 | 44.00797 | 134.38202 | 32314 ft | 381 kts | 236° |
| 2026-05-01 09:15 | 43.99497 | 134.35042 | 31841 ft | 376 kts | 236° |
| 2026-05-01 09:15 | 43.98196 | 134.31888 | 31359 ft | 371 kts | 236° |
| 2026-05-01 09:15 | 43.96925 | 134.28810 | 30896 ft | 366 kts | 236° |
| 2026-05-01 09:15 | 43.95676 | 134.25794 | 30433 ft | 361 kts | 236° |
| 2026-05-01 09:16 | 43.94421 | 134.22769 | 29980 ft | 356 kts | 236° |
| 2026-05-01 09:16 | 43.93204 | 134.19836 | 29536 ft | 357 kts | 237° |
| 2026-05-01 09:16 | 43.91938 | 134.16798 | 29062 ft | 363 kts | 237° |
| 2026-05-01 09:17 | 43.89440 | 134.10797 | 28127 ft | 358 kts | 237° |
| 2026-05-01 09:17 | 43.88203 | 134.07823 | 27657 ft | 355 kts | 238° |
| 2026-05-01 09:17 | 43.85762 | 134.01967 | 26713 ft | 349 kts | 239° |
| 2026-05-01 09:18 | 43.84550 | 133.99062 | 26254 ft | 349 kts | 239° |
| 2026-05-01 09:18 | 43.82098 | 133.93201 | 25298 ft | 354 kts | 239° |
| 2026-05-01 09:19 | 43.79686 | 133.87373 | 24353 ft | 348 kts | 243° |
| 2026-05-01 09:19 | 43.78682 | 133.84348 | 23888 ft | 345 kts | 250° |
| 2026-05-01 09:19 | 43.77998 | 133.81174 | 23434 ft | 342 kts | 257° |
| 2026-05-01 09:20 | 43.77176 | 133.74757 | 22484 ft | 338 kts | 262° |
| 2026-05-01 09:20 | 43.76503 | 133.68372 | 21558 ft | 334 kts | 262° |
| 2026-05-01 09:21 | 43.75816 | 133.62087 | 20657 ft | 330 kts | 262° |
| 2026-05-01 09:21 | 43.75464 | 133.58977 | 20195 ft | 328 kts | 261° |
| 2026-05-01 09:21 | 43.74755 | 133.52791 | 19299 ft | 324 kts | 261° |
| 2026-05-01 09:22 | 43.74050 | 133.46706 | 18384 ft | 320 kts | 261° |
| 2026-05-01 09:22 | 43.73345 | 133.40665 | 17483 ft | 317 kts | 262° |
| 2026-05-01 09:23 | 43.72995 | 133.37672 | 17028 ft | 315 kts | 262° |
| 2026-05-01 09:23 | 43.72292 | 133.31702 | 16146 ft | 312 kts | 261° |
| 2026-05-01 09:24 | 43.71598 | 133.25833 | 15265 ft | 309 kts | 262° |
| 2026-05-01 09:24 | 43.71254 | 133.22945 | 14847 ft | 307 kts | 262° |
| 2026-05-01 09:24 | 43.70561 | 133.17134 | 13947 ft | 305 kts | 262° |
| 2026-05-01 09:25 | 43.69876 | 133.11427 | 13094 ft | 302 kts | 262° |
| 2026-05-01 09:25 | 43.69190 | 133.05725 | 12259 ft | 299 kts | 262° |
| 2026-05-01 09:26 | 43.68849 | 133.02899 | 11836 ft | 298 kts | 262° |
| 2026-05-01 09:26 | 43.68172 | 132.97317 | 11006 ft | 295 kts | 263° |
| 2026-05-01 09:26 | 43.67830 | 132.94505 | 10573 ft | 295 kts | 263° |
| 2026-05-01 09:27 | 43.67155 | 132.88972 | 9881 ft | 288 kts | 263° |
| 2026-05-01 09:27 | 43.66828 | 132.86311 | 9759 ft | 275 kts | 263° |
| 2026-05-01 09:27 | 43.66511 | 132.83745 | 9528 ft | 269 kts | 263° |
| 2026-05-01 09:28 | 43.66196 | 132.81197 | 9124 ft | 270 kts | 263° |
| 2026-05-01 09:28 | 43.65682 | 132.78703 | 8769 ft | 272 kts | 251° |
| 2026-05-01 09:28 | 43.64807 | 132.76373 | 8405 ft | 275 kts | 243° |
| 2026-05-01 09:28 | 43.63823 | 132.74146 | 8040 ft | 275 kts | 242° |
| 2026-05-01 09:29 | 43.61821 | 132.69634 | 7426 ft | 270 kts | 241° |
| 2026-05-01 09:29 | 43.60824 | 132.67496 | 7217 ft | 266 kts | 242° |
| 2026-05-01 09:30 | 43.58927 | 132.62976 | 6524 ft | 273 kts | 246° |
| 2026-05-01 09:30 | 43.58022 | 132.60678 | 6158 ft | 274 kts | 246° |
| 2026-05-01 09:30 | 43.56192 | 132.56064 | 5440 ft | 274 kts | 246° |
| 2026-05-01 09:31 | 43.55286 | 132.53792 | 5090 ft | 275 kts | 246° |
| 2026-05-01 09:31 | 43.54359 | 132.51468 | 4725 ft | 275 kts | 246° |
| 2026-05-01 09:31 | 43.52530 | 132.46889 | 4131 ft | 270 kts | 246° |
| 2026-05-01 09:32 | 43.51625 | 132.44626 | 3879 ft | 266 kts | 246° |
| 2026-05-01 09:32 | 43.49868 | 132.40237 | 3426 ft | 259 kts | 246° |
| 2026-05-01 09:32 | 43.48998 | 132.38071 | 3130 ft | 257 kts | 246° |
| 2026-05-01 09:33 | 43.48139 | 132.35921 | 2846 ft | 256 kts | 246° |
| 2026-05-01 09:33 | 43.47286 | 132.33781 | 2570 ft | 252 kts | 245° |
| 2026-05-01 09:33 | 43.45630 | 132.29677 | 2129 ft | 236 kts | 245° |
| 2026-05-01 09:34 | 43.44849 | 132.27733 | 1837 ft | 232 kts | 245° |
| 2026-05-01 09:34 | 43.44069 | 132.25783 | 1523 ft | 229 kts | 245° |
| 2026-05-01 09:34 | 43.42643 | 132.22263 | 973 ft | 191 kts | 243° |
| 2026-05-01 09:35 | 43.42027 | 132.20718 | 696 ft | 174 kts | 243° |
| 2026-05-01 09:35 | 43.40993 | 132.18102 | 301 ft | 141 kts | 239° |
| 2026-05-01 09:35 | 43.40512 | 132.16965 | 94 ft | 133 kts | 241° |
| 2026-05-01 09:36 | 43.40071 | 132.15904 | 54 ft | 124 kts | 241° |
| 2026-05-01 09:36 | 43.39716 | 132.15021 | 54 ft | 85 kts | 241° |
| 2026-05-01 09:36 | 43.39542 | 132.14594 | 48 ft | 31 kts | 240° |
| 2026-05-01 09:36 | 43.39423 | 132.14307 | 45 ft | 33 kts | 240° |
| 2026-05-01 09:37 | 43.39297 | 132.14183 | 46 ft | 15 kts | 136° |
| 2026-05-01 09:37 | 43.39199 | 132.14282 | 51 ft | 9 kts | 126° |
| 2026-05-01 09:37 | 43.39227 | 132.14416 | 54 ft | 20 kts | 52° |
| 2026-05-01 09:38 | 43.39359 | 132.14722 | 58 ft | 17 kts | 61° |
| 2026-05-01 09:38 | 43.39415 | 132.14861 | 59 ft | 16 kts | 61° |
| 2026-05-01 09:38 | 43.39468 | 132.14995 | 59 ft | 15 kts | 61° |
| 2026-05-01 09:39 | 43.39565 | 132.15237 | 61 ft | 13 kts | 62° |
| 2026-05-01 09:39 | 43.39607 | 132.15344 | 63 ft | 12 kts | 62° |
| 2026-05-01 09:39 | 43.39644 | 132.15436 | 65 ft | 9 kts | 60° |
| 2026-05-01 09:40 | 43.39673 | 132.15506 | 67 ft | 7 kts | 60° |
| 2026-05-01 09:40 | 43.39743 | 132.15680 | 66 ft | 12 kts | 60° |
| 2026-05-01 09:40 | 43.39710 | 132.15749 | 66 ft | 8 kts | 142° |
| 2026-05-01 09:41 | 43.39711 | 132.15817 | 66 ft | 8 kts | 57° |
| 2026-05-01 09:41 | 43.39774 | 132.15968 | 63 ft | 6 kts | 65° |
| 2026-05-01 09:41 | 43.39775 | 132.16013 | 63 ft | 2 kts | 147° |
| 2026-05-01 09:42 | 43.39757 | 132.16019 | 64 ft | 3 kts | 159° |
| 2026-05-01 09:42 | 43.39740 | 132.16028 | 64 ft | 1 kts | 154° |
| 2026-05-01 09:42 | 43.39727 | 132.16038 | 65 ft | 0 kts | 148° |